sensor_id;sensor_type;location;lat;lon;timestamp;P1;durP1;ratioP1;P2;durP2;ratioP2
13202;SDS011;6666;51.626;7.530;2024-03-22T00:01:57;41.53;;;24.60;;
13202;SDS011;6666;51.626;7.530;2024-03-22T00:04:23;39.03;;;24.83;;
13202;SDS011;6666;51.626;7.530;2024-03-22T00:06:50;38.17;;;25.05;;
13202;SDS011;6666;51.626;7.530;2024-03-22T00:09:16;40.88;;;25.23;;
13202;SDS011;6666;51.626;7.530;2024-03-22T00:11:43;41.13;;;24.58;;
13202;SDS011;6666;51.626;7.530;2024-03-22T00:14:10;40.17;;;24.15;;
13202;SDS011;6666;51.626;7.530;2024-03-22T00:16:37;37.00;;;23.73;;
13202;SDS011;6666;51.626;7.530;2024-03-22T00:19:05;43.88;;;25.58;;
13202;SDS011;6666;51.626;7.530;2024-03-22T00:21:32;39.67;;;24.05;;
13202;SDS011;6666;51.626;7.530;2024-03-22T00:23:58;39.88;;;24.38;;
13202;SDS011;6666;51.626;7.530;2024-03-22T00:26:26;45.30;;;25.25;;
13202;SDS011;6666;51.626;7.530;2024-03-22T00:28:52;48.50;;;25.33;;
13202;SDS011;6666;51.626;7.530;2024-03-22T00:31:20;46.92;;;24.50;;
13202;SDS011;6666;51.626;7.530;2024-03-22T00:33:46;49.13;;;25.95;;
13202;SDS011;6666;51.626;7.530;2024-03-22T00:36:14;43.78;;;25.20;;
13202;SDS011;6666;51.626;7.530;2024-03-22T00:38:40;42.20;;;22.55;;
13202;SDS011;6666;51.626;7.530;2024-03-22T00:41:07;38.67;;;22.80;;
13202;SDS011;6666;51.626;7.530;2024-03-22T00:43:34;41.13;;;23.53;;
13202;SDS011;6666;51.626;7.530;2024-03-22T00:46:01;37.00;;;21.80;;
13202;SDS011;6666;51.626;7.530;2024-03-22T00:48:28;36.40;;;22.05;;
13202;SDS011;6666;51.626;7.530;2024-03-22T00:50:55;37.55;;;21.63;;
13202;SDS011;6666;51.626;7.530;2024-03-22T00:53:23;42.75;;;23.30;;
13202;SDS011;6666;51.626;7.530;2024-03-22T00:55:50;41.15;;;22.30;;
13202;SDS011;6666;51.626;7.530;2024-03-22T00:58:17;40.92;;;22.98;;
13202;SDS011;6666;51.626;7.530;2024-03-22T01:00:44;40.47;;;22.50;;
13202;SDS011;6666;51.626;7.530;2024-03-22T01:03:11;41.15;;;22.90;;
13202;SDS011;6666;51.626;7.530;2024-03-22T01:05:38;40.72;;;22.48;;
13202;SDS011;6666;51.626;7.530;2024-03-22T01:08:06;39.03;;;22.13;;
13202;SDS011;6666;51.626;7.530;2024-03-22T01:10:34;38.05;;;21.85;;
13202;SDS011;6666;51.626;7.530;2024-03-22T01:13:00;39.63;;;21.80;;
13202;SDS011;6666;51.626;7.530;2024-03-22T01:15:27;36.72;;;20.95;;
13202;SDS011;6666;51.626;7.530;2024-03-22T01:17:54;41.47;;;21.52;;
13202;SDS011;6666;51.626;7.530;2024-03-22T01:20:21;36.57;;;20.53;;
13202;SDS011;6666;51.626;7.530;2024-03-22T01:22:47;36.08;;;21.52;;
13202;SDS011;6666;51.626;7.530;2024-03-22T01:25:14;37.92;;;20.58;;
13202;SDS011;6666;51.626;7.530;2024-03-22T01:27:42;36.03;;;20.08;;
13202;SDS011;6666;51.626;7.530;2024-03-22T01:30:09;33.85;;;20.75;;
13202;SDS011;6666;51.626;7.530;2024-03-22T01:32:36;36.33;;;20.40;;
13202;SDS011;6666;51.626;7.530;2024-03-22T01:35:04;35.72;;;19.95;;
13202;SDS011;6666;51.626;7.530;2024-03-22T01:37:30;33.20;;;19.05;;
13202;SDS011;6666;51.626;7.530;2024-03-22T01:39:57;39.25;;;19.92;;
13202;SDS011;6666;51.626;7.530;2024-03-22T01:42:23;33.00;;;19.70;;
13202;SDS011;6666;51.626;7.530;2024-03-22T01:44:52;34.65;;;18.95;;
13202;SDS011;6666;51.626;7.530;2024-03-22T01:47:18;33.25;;;19.80;;
13202;SDS011;6666;51.626;7.530;2024-03-22T01:49:45;33.38;;;20.35;;
13202;SDS011;6666;51.626;7.530;2024-03-22T01:52:13;36.28;;;19.70;;
13202;SDS011;6666;51.626;7.530;2024-03-22T01:54:41;39.17;;;20.05;;
13202;SDS011;6666;51.626;7.530;2024-03-22T01:57:08;34.47;;;19.77;;
13202;SDS011;6666;51.626;7.530;2024-03-22T01:59:35;32.50;;;19.23;;
13202;SDS011;6666;51.626;7.530;2024-03-22T02:02:03;34.80;;;20.52;;
13202;SDS011;6666;51.626;7.530;2024-03-22T02:04:30;38.83;;;20.40;;
13202;SDS011;6666;51.626;7.530;2024-03-22T02:06:57;40.17;;;21.50;;
13202;SDS011;6666;51.626;7.530;2024-03-22T02:09:24;38.03;;;20.75;;
13202;SDS011;6666;51.626;7.530;2024-03-22T02:11:50;41.08;;;22.05;;
13202;SDS011;6666;51.626;7.530;2024-03-22T02:14:18;39.80;;;20.95;;
13202;SDS011;6666;51.626;7.530;2024-03-22T02:16:44;37.47;;;21.35;;
13202;SDS011;6666;51.626;7.530;2024-03-22T02:19:12;44.58;;;22.00;;
13202;SDS011;6666;51.626;7.530;2024-03-22T02:21:42;43.75;;;22.65;;
13202;SDS011;6666;51.626;7.530;2024-03-22T02:24:10;42.25;;;22.42;;
13202;SDS011;6666;51.626;7.530;2024-03-22T02:26:36;45.58;;;22.35;;
13202;SDS011;6666;51.626;7.530;2024-03-22T02:29:04;42.70;;;22.45;;
13202;SDS011;6666;51.626;7.530;2024-03-22T02:31:30;44.13;;;23.00;;
13202;SDS011;6666;51.626;7.530;2024-03-22T02:33:57;41.80;;;21.65;;
13202;SDS011;6666;51.626;7.530;2024-03-22T02:36:24;32.22;;;19.98;;
13202;SDS011;6666;51.626;7.530;2024-03-22T02:38:51;36.95;;;19.58;;
13202;SDS011;6666;51.626;7.530;2024-03-22T02:41:18;40.55;;;19.58;;
13202;SDS011;6666;51.626;7.530;2024-03-22T02:43:45;34.88;;;18.52;;
13202;SDS011;6666;51.626;7.530;2024-03-22T02:46:11;32.33;;;18.65;;
13202;SDS011;6666;51.626;7.530;2024-03-22T02:48:38;35.83;;;18.67;;
13202;SDS011;6666;51.626;7.530;2024-03-22T02:51:05;35.65;;;18.60;;
13202;SDS011;6666;51.626;7.530;2024-03-22T02:53:32;34.33;;;19.13;;
13202;SDS011;6666;51.626;7.530;2024-03-22T02:55:59;31.73;;;18.00;;
13202;SDS011;6666;51.626;7.530;2024-03-22T02:58:28;36.15;;;19.45;;
13202;SDS011;6666;51.626;7.530;2024-03-22T03:00:54;31.65;;;19.13;;
13202;SDS011;6666;51.626;7.530;2024-03-22T03:03:21;31.83;;;18.42;;
13202;SDS011;6666;51.626;7.530;2024-03-22T03:05:47;35.08;;;18.38;;
13202;SDS011;6666;51.626;7.530;2024-03-22T03:08:14;32.55;;;18.85;;
13202;SDS011;6666;51.626;7.530;2024-03-22T03:10:40;36.47;;;19.10;;
13202;SDS011;6666;51.626;7.530;2024-03-22T03:13:07;33.55;;;18.63;;
13202;SDS011;6666;51.626;7.530;2024-03-22T03:15:35;33.10;;;18.75;;
13202;SDS011;6666;51.626;7.530;2024-03-22T03:18:02;31.73;;;16.92;;
13202;SDS011;6666;51.626;7.530;2024-03-22T03:20:31;31.17;;;17.90;;
13202;SDS011;6666;51.626;7.530;2024-03-22T03:22:58;35.10;;;17.95;;
13202;SDS011;6666;51.626;7.530;2024-03-22T03:25:25;30.65;;;17.15;;
13202;SDS011;6666;51.626;7.530;2024-03-22T03:27:52;30.05;;;17.13;;
13202;SDS011;6666;51.626;7.530;2024-03-22T03:30:19;32.47;;;18.13;;
13202;SDS011;6666;51.626;7.530;2024-03-22T03:32:47;29.92;;;17.38;;
13202;SDS011;6666;51.626;7.530;2024-03-22T03:35:13;32.28;;;17.10;;
13202;SDS011;6666;51.626;7.530;2024-03-22T03:37:40;30.27;;;17.02;;
13202;SDS011;6666;51.626;7.530;2024-03-22T03:40:07;31.67;;;17.88;;
13202;SDS011;6666;51.626;7.530;2024-03-22T03:42:35;33.30;;;17.88;;
13202;SDS011;6666;51.626;7.530;2024-03-22T03:45:01;32.50;;;18.40;;
13202;SDS011;6666;51.626;7.530;2024-03-22T03:47:28;33.40;;;17.75;;
13202;SDS011;6666;51.626;7.530;2024-03-22T03:49:56;33.08;;;18.63;;
13202;SDS011;6666;51.626;7.530;2024-03-22T03:52:23;32.25;;;18.05;;
13202;SDS011;6666;51.626;7.530;2024-03-22T03:54:49;40.93;;;19.30;;
13202;SDS011;6666;51.626;7.530;2024-03-22T03:57:16;32.67;;;18.80;;
13202;SDS011;6666;51.626;7.530;2024-03-22T03:59:42;34.55;;;18.08;;
13202;SDS011;6666;51.626;7.530;2024-03-22T04:02:09;32.03;;;18.17;;
13202;SDS011;6666;51.626;7.530;2024-03-22T04:04:36;31.25;;;18.40;;
13202;SDS011;6666;51.626;7.530;2024-03-22T04:07:04;33.45;;;18.42;;
13202;SDS011;6666;51.626;7.530;2024-03-22T04:09:30;38.30;;;18.85;;
13202;SDS011;6666;51.626;7.530;2024-03-22T04:11:58;33.17;;;17.60;;
13202;SDS011;6666;51.626;7.530;2024-03-22T04:14:25;33.95;;;18.45;;
13202;SDS011;6666;51.626;7.530;2024-03-22T04:16:52;31.98;;;18.02;;
13202;SDS011;6666;51.626;7.530;2024-03-22T04:19:20;35.42;;;18.80;;
13202;SDS011;6666;51.626;7.530;2024-03-22T04:21:47;32.88;;;19.10;;
13202;SDS011;6666;51.626;7.530;2024-03-22T04:24:15;36.40;;;20.00;;
13202;SDS011;6666;51.626;7.530;2024-03-22T04:26:42;32.97;;;19.05;;
13202;SDS011;6666;51.626;7.530;2024-03-22T04:29:09;32.50;;;19.48;;
13202;SDS011;6666;51.626;7.530;2024-03-22T04:31:36;30.90;;;17.80;;
13202;SDS011;6666;51.626;7.530;2024-03-22T04:34:02;33.67;;;18.70;;
13202;SDS011;6666;51.626;7.530;2024-03-22T04:36:30;32.15;;;17.95;;
13202;SDS011;6666;51.626;7.530;2024-03-22T04:38:57;32.63;;;18.30;;
13202;SDS011;6666;51.626;7.530;2024-03-22T04:41:25;33.30;;;17.45;;
13202;SDS011;6666;51.626;7.530;2024-03-22T04:43:52;28.87;;;17.33;;
13202;SDS011;6666;51.626;7.530;2024-03-22T04:46:19;32.22;;;17.80;;
13202;SDS011;6666;51.626;7.530;2024-03-22T04:48:46;30.05;;;17.55;;
13202;SDS011;6666;51.626;7.530;2024-03-22T04:51:12;34.38;;;18.08;;
13202;SDS011;6666;51.626;7.530;2024-03-22T04:53:40;31.77;;;17.47;;
13202;SDS011;6666;51.626;7.530;2024-03-22T04:56:07;29.80;;;16.77;;
13202;SDS011;6666;51.626;7.530;2024-03-22T04:58:36;29.70;;;16.60;;
13202;SDS011;6666;51.626;7.530;2024-03-22T05:01:02;27.55;;;16.67;;
13202;SDS011;6666;51.626;7.530;2024-03-22T05:03:29;24.95;;;16.00;;
13202;SDS011;6666;51.626;7.530;2024-03-22T05:05:56;30.73;;;16.15;;
13202;SDS011;6666;51.626;7.530;2024-03-22T05:08:23;26.10;;;15.57;;
13202;SDS011;6666;51.626;7.530;2024-03-22T05:10:50;28.60;;;16.42;;
13202;SDS011;6666;51.626;7.530;2024-03-22T05:13:17;27.25;;;16.52;;
13202;SDS011;6666;51.626;7.530;2024-03-22T05:15:44;27.65;;;15.85;;
13202;SDS011;6666;51.626;7.530;2024-03-22T05:18:11;28.85;;;15.68;;
13202;SDS011;6666;51.626;7.530;2024-03-22T05:20:37;25.95;;;15.50;;
13202;SDS011;6666;51.626;7.530;2024-03-22T05:23:04;28.63;;;16.40;;
13202;SDS011;6666;51.626;7.530;2024-03-22T05:25:30;27.63;;;16.70;;
13202;SDS011;6666;51.626;7.530;2024-03-22T05:27:57;28.80;;;16.00;;
13202;SDS011;6666;51.626;7.530;2024-03-22T05:30:24;27.83;;;14.50;;
13202;SDS011;6666;51.626;7.530;2024-03-22T05:32:52;26.10;;;14.70;;
13202;SDS011;6666;51.626;7.530;2024-03-22T05:35:18;25.15;;;16.40;;
13202;SDS011;6666;51.626;7.530;2024-03-22T05:37:45;24.42;;;14.60;;
13202;SDS011;6666;51.626;7.530;2024-03-22T05:40:12;23.80;;;14.57;;
13202;SDS011;6666;51.626;7.530;2024-03-22T05:42:39;24.45;;;14.50;;
13202;SDS011;6666;51.626;7.530;2024-03-22T05:45:05;28.02;;;14.52;;
13202;SDS011;6666;51.626;7.530;2024-03-22T05:47:33;24.88;;;13.63;;
13202;SDS011;6666;51.626;7.530;2024-03-22T05:50:00;26.98;;;14.18;;
13202;SDS011;6666;51.626;7.530;2024-03-22T05:52:28;21.20;;;14.15;;
13202;SDS011;6666;51.626;7.530;2024-03-22T05:54:55;20.95;;;13.68;;
13202;SDS011;6666;51.626;7.530;2024-03-22T05:57:21;24.10;;;14.00;;
13202;SDS011;6666;51.626;7.530;2024-03-22T05:59:48;22.92;;;14.15;;
13202;SDS011;6666;51.626;7.530;2024-03-22T06:02:14;27.88;;;13.88;;
13202;SDS011;6666;51.626;7.530;2024-03-22T06:04:42;26.30;;;14.50;;
13202;SDS011;6666;51.626;7.530;2024-03-22T06:07:09;25.17;;;13.82;;
13202;SDS011;6666;51.626;7.530;2024-03-22T06:09:36;20.60;;;13.23;;
13202;SDS011;6666;51.626;7.530;2024-03-22T06:12:03;22.95;;;14.07;;
13202;SDS011;6666;51.626;7.530;2024-03-22T06:14:31;24.83;;;13.20;;
13202;SDS011;6666;51.626;7.530;2024-03-22T06:16:57;20.98;;;13.88;;
13202;SDS011;6666;51.626;7.530;2024-03-22T06:19:24;22.67;;;13.20;;
13202;SDS011;6666;51.626;7.530;2024-03-22T06:21:51;23.87;;;14.20;;
13202;SDS011;6666;51.626;7.530;2024-03-22T06:24:19;24.92;;;13.35;;
13202;SDS011;6666;51.626;7.530;2024-03-22T06:26:45;22.03;;;13.20;;
13202;SDS011;6666;51.626;7.530;2024-03-22T06:29:14;20.33;;;12.30;;
13202;SDS011;6666;51.626;7.530;2024-03-22T06:31:41;24.27;;;13.18;;
13202;SDS011;6666;51.626;7.530;2024-03-22T06:34:08;20.10;;;13.70;;
13202;SDS011;6666;51.626;7.530;2024-03-22T06:36:35;21.10;;;12.40;;
13202;SDS011;6666;51.626;7.530;2024-03-22T06:39:02;21.27;;;13.18;;
13202;SDS011;6666;51.626;7.530;2024-03-22T06:41:33;23.70;;;13.60;;
13202;SDS011;6666;51.626;7.530;2024-03-22T06:44:01;21.80;;;13.35;;
13202;SDS011;6666;51.626;7.530;2024-03-22T06:46:27;25.38;;;13.00;;
13202;SDS011;6666;51.626;7.530;2024-03-22T06:48:54;18.83;;;12.70;;
13202;SDS011;6666;51.626;7.530;2024-03-22T06:51:20;22.90;;;12.85;;
13202;SDS011;6666;51.626;7.530;2024-03-22T06:53:47;20.42;;;12.70;;
13202;SDS011;6666;51.626;7.530;2024-03-22T06:56:13;21.50;;;11.85;;
13202;SDS011;6666;51.626;7.530;2024-03-22T06:58:42;18.77;;;12.75;;
13202;SDS011;6666;51.626;7.530;2024-03-22T07:01:08;21.17;;;13.10;;
13202;SDS011;6666;51.626;7.530;2024-03-22T07:03:35;21.02;;;12.30;;
13202;SDS011;6666;51.626;7.530;2024-03-22T07:06:01;17.25;;;11.48;;
13202;SDS011;6666;51.626;7.530;2024-03-22T07:08:29;17.40;;;11.48;;
13202;SDS011;6666;51.626;7.530;2024-03-22T07:10:56;18.07;;;11.20;;
13202;SDS011;6666;51.626;7.530;2024-03-22T07:13:23;19.95;;;11.48;;
13202;SDS011;6666;51.626;7.530;2024-03-22T07:15:50;17.38;;;11.07;;
13202;SDS011;6666;51.626;7.530;2024-03-22T07:18:17;17.42;;;11.43;;
13202;SDS011;6666;51.626;7.530;2024-03-22T07:20:44;18.88;;;11.45;;
13202;SDS011;6666;51.626;7.530;2024-03-22T07:23:12;15.00;;;10.25;;
13202;SDS011;6666;51.626;7.530;2024-03-22T07:25:39;19.48;;;10.90;;
13202;SDS011;6666;51.626;7.530;2024-03-22T07:28:08;19.75;;;11.15;;
13202;SDS011;6666;51.626;7.530;2024-03-22T07:30:34;15.15;;;10.45;;
13202;SDS011;6666;51.626;7.530;2024-03-22T07:33:03;16.98;;;11.30;;
13202;SDS011;6666;51.626;7.530;2024-03-22T07:35:30;19.37;;;11.57;;
13202;SDS011;6666;51.626;7.530;2024-03-22T07:37:57;17.75;;;11.43;;
13202;SDS011;6666;51.626;7.530;2024-03-22T07:40:23;18.17;;;12.00;;
13202;SDS011;6666;51.626;7.530;2024-03-22T07:42:51;17.38;;;11.38;;
13202;SDS011;6666;51.626;7.530;2024-03-22T07:45:17;17.98;;;11.07;;
13202;SDS011;6666;51.626;7.530;2024-03-22T07:47:52;20.58;;;11.27;;
13202;SDS011;6666;51.626;7.530;2024-03-22T07:50:29;16.10;;;10.90;;
13202;SDS011;6666;51.626;7.530;2024-03-22T07:52:56;17.30;;;10.80;;
13202;SDS011;6666;51.626;7.530;2024-03-22T07:55:23;17.20;;;11.27;;
13202;SDS011;6666;51.626;7.530;2024-03-22T07:57:50;20.50;;;10.95;;
13202;SDS011;6666;51.626;7.530;2024-03-22T08:00:17;18.50;;;11.50;;
13202;SDS011;6666;51.626;7.530;2024-03-22T08:02:47;18.13;;;11.00;;
13202;SDS011;6666;51.626;7.530;2024-03-22T08:05:13;18.70;;;11.37;;
13202;SDS011;6666;51.626;7.530;2024-03-22T08:07:42;18.77;;;11.57;;
13202;SDS011;6666;51.626;7.530;2024-03-22T08:10:09;19.35;;;11.30;;
13202;SDS011;6666;51.626;7.530;2024-03-22T08:12:35;15.68;;;10.77;;
13202;SDS011;6666;51.626;7.530;2024-03-22T08:15:03;18.75;;;11.05;;
13202;SDS011;6666;51.626;7.530;2024-03-22T08:17:29;16.95;;;10.98;;
13202;SDS011;6666;51.626;7.530;2024-03-22T08:19:56;15.13;;;11.40;;
13202;SDS011;6666;51.626;7.530;2024-03-22T08:22:22;19.10;;;10.60;;
13202;SDS011;6666;51.626;7.530;2024-03-22T08:24:51;15.50;;;10.40;;
13202;SDS011;6666;51.626;7.530;2024-03-22T08:27:17;14.80;;;10.10;;
13202;SDS011;6666;51.626;7.530;2024-03-22T08:29:44;18.30;;;10.60;;
13202;SDS011;6666;51.626;7.530;2024-03-22T08:32:10;20.92;;;10.85;;
13202;SDS011;6666;51.626;7.530;2024-03-22T08:34:37;17.27;;;10.25;;
13202;SDS011;6666;51.626;7.530;2024-03-22T08:37:04;15.30;;;11.00;;
13202;SDS011;6666;51.626;7.530;2024-03-22T08:39:31;17.13;;;10.70;;
13202;SDS011;6666;51.626;7.530;2024-03-22T08:41:58;17.10;;;10.50;;
13202;SDS011;6666;51.626;7.530;2024-03-22T08:44:25;14.68;;;11.05;;
13202;SDS011;6666;51.626;7.530;2024-03-22T08:46:52;19.42;;;10.68;;
13202;SDS011;6666;51.626;7.530;2024-03-22T08:49:19;13.27;;;9.18;;
13202;SDS011;6666;51.626;7.530;2024-03-22T08:51:45;15.55;;;9.73;;
13202;SDS011;6666;51.626;7.530;2024-03-22T08:54:13;15.32;;;9.20;;
13202;SDS011;6666;51.626;7.530;2024-03-22T08:56:40;17.90;;;9.63;;
13202;SDS011;6666;51.626;7.530;2024-03-22T08:59:08;16.60;;;9.00;;
13202;SDS011;6666;51.626;7.530;2024-03-22T09:01:35;13.60;;;9.30;;
13202;SDS011;6666;51.626;7.530;2024-03-22T09:04:03;15.30;;;8.80;;
13202;SDS011;6666;51.626;7.530;2024-03-22T09:06:29;16.75;;;9.32;;
13202;SDS011;6666;51.626;7.530;2024-03-22T09:08:57;17.17;;;8.88;;
13202;SDS011;6666;51.626;7.530;2024-03-22T09:11:23;15.18;;;9.10;;
13202;SDS011;6666;51.626;7.530;2024-03-22T09:13:51;18.48;;;8.73;;
13202;SDS011;6666;51.626;7.530;2024-03-22T09:16:19;14.82;;;9.07;;
13202;SDS011;6666;51.626;7.530;2024-03-22T09:18:46;14.27;;;8.40;;
13202;SDS011;6666;51.626;7.530;2024-03-22T09:21:12;14.43;;;8.80;;
13202;SDS011;6666;51.626;7.530;2024-03-22T09:23:39;13.32;;;8.90;;
13202;SDS011;6666;51.626;7.530;2024-03-22T09:26:05;12.60;;;7.90;;
13202;SDS011;6666;51.626;7.530;2024-03-22T09:28:33;14.23;;;8.50;;
13202;SDS011;6666;51.626;7.530;2024-03-22T09:31:02;14.98;;;9.95;;
13202;SDS011;6666;51.626;7.530;2024-03-22T09:33:32;17.90;;;9.82;;
13202;SDS011;6666;51.626;7.530;2024-03-22T09:35:58;16.83;;;8.80;;
13202;SDS011;6666;51.626;7.530;2024-03-22T09:38:25;16.55;;;8.60;;
13202;SDS011;6666;51.626;7.530;2024-03-22T09:40:52;13.67;;;8.37;;
13202;SDS011;6666;51.626;7.530;2024-03-22T09:43:20;13.05;;;8.48;;
13202;SDS011;6666;51.626;7.530;2024-03-22T09:45:46;13.55;;;8.95;;
13202;SDS011;6666;51.626;7.530;2024-03-22T09:48:14;13.82;;;7.75;;
13202;SDS011;6666;51.626;7.530;2024-03-22T09:50:42;13.20;;;8.65;;
13202;SDS011;6666;51.626;7.530;2024-03-22T09:53:09;13.30;;;8.52;;
13202;SDS011;6666;51.626;7.530;2024-03-22T09:55:36;13.45;;;8.60;;
13202;SDS011;6666;51.626;7.530;2024-03-22T09:58:05;15.38;;;8.20;;
13202;SDS011;6666;51.626;7.530;2024-03-22T10:00:31;13.73;;;8.40;;
13202;SDS011;6666;51.626;7.530;2024-03-22T10:02:59;14.50;;;9.00;;
13202;SDS011;6666;51.626;7.530;2024-03-22T10:05:26;14.13;;;8.50;;
13202;SDS011;6666;51.626;7.530;2024-03-22T10:07:54;12.30;;;8.18;;
13202;SDS011;6666;51.626;7.530;2024-03-22T10:10:21;12.98;;;8.35;;
13202;SDS011;6666;51.626;7.530;2024-03-22T10:12:48;16.40;;;9.02;;
13202;SDS011;6666;51.626;7.530;2024-03-22T10:15:14;14.90;;;8.25;;
13202;SDS011;6666;51.626;7.530;2024-03-22T10:17:42;13.23;;;8.52;;
13202;SDS011;6666;51.626;7.530;2024-03-22T10:20:12;14.75;;;8.15;;
13202;SDS011;6666;51.626;7.530;2024-03-22T10:22:41;17.42;;;8.30;;
13202;SDS011;6666;51.626;7.530;2024-03-22T10:25:09;16.40;;;8.03;;
13202;SDS011;6666;51.626;7.530;2024-03-22T10:27:38;17.45;;;8.20;;
13202;SDS011;6666;51.626;7.530;2024-03-22T10:30:05;13.00;;;7.40;;
13202;SDS011;6666;51.626;7.530;2024-03-22T10:32:36;14.73;;;8.52;;
13202;SDS011;6666;51.626;7.530;2024-03-22T10:35:02;15.45;;;8.43;;
13202;SDS011;6666;51.626;7.530;2024-03-22T10:37:32;13.63;;;8.88;;
13202;SDS011;6666;51.626;7.530;2024-03-22T10:40:00;14.40;;;8.13;;
13202;SDS011;6666;51.626;7.530;2024-03-22T10:42:34;11.55;;;8.50;;
13202;SDS011;6666;51.626;7.530;2024-03-22T10:45:01;14.82;;;8.05;;
13202;SDS011;6666;51.626;7.530;2024-03-22T10:47:29;15.65;;;8.65;;
13202;SDS011;6666;51.626;7.530;2024-03-22T10:49:57;13.45;;;8.30;;
13202;SDS011;6666;51.626;7.530;2024-03-22T10:52:32;15.65;;;9.10;;
13202;SDS011;6666;51.626;7.530;2024-03-22T10:55:01;14.10;;;8.80;;
13202;SDS011;6666;51.626;7.530;2024-03-22T10:57:32;15.35;;;9.30;;
13202;SDS011;6666;51.626;7.530;2024-03-22T11:00:03;14.00;;;8.00;;
13202;SDS011;6666;51.626;7.530;2024-03-22T11:02:35;15.43;;;8.75;;
13202;SDS011;6666;51.626;7.530;2024-03-22T11:05:01;13.73;;;7.80;;
13202;SDS011;6666;51.626;7.530;2024-03-22T11:07:29;17.13;;;8.20;;
13202;SDS011;6666;51.626;7.530;2024-03-22T11:09:56;12.82;;;8.70;;
13202;SDS011;6666;51.626;7.530;2024-03-22T11:12:25;15.50;;;8.40;;
13202;SDS011;6666;51.626;7.530;2024-03-22T11:14:53;13.38;;;7.88;;
13202;SDS011;6666;51.626;7.530;2024-03-22T11:17:21;15.17;;;7.73;;
13202;SDS011;6666;51.626;7.530;2024-03-22T11:19:50;14.10;;;8.20;;
13202;SDS011;6666;51.626;7.530;2024-03-22T11:22:18;10.38;;;7.03;;
13202;SDS011;6666;51.626;7.530;2024-03-22T11:24:44;10.48;;;7.40;;
13202;SDS011;6666;51.626;7.530;2024-03-22T11:27:12;10.63;;;7.50;;
13202;SDS011;6666;51.626;7.530;2024-03-22T11:29:39;11.80;;;7.55;;
13202;SDS011;6666;51.626;7.530;2024-03-22T11:32:08;13.30;;;8.00;;
13202;SDS011;6666;51.626;7.530;2024-03-22T11:34:35;11.20;;;6.90;;
13202;SDS011;6666;51.626;7.530;2024-03-22T11:37:02;14.90;;;8.75;;
13202;SDS011;6666;51.626;7.530;2024-03-22T11:39:29;13.25;;;8.05;;
13202;SDS011;6666;51.626;7.530;2024-03-22T11:41:56;12.87;;;9.07;;
13202;SDS011;6666;51.626;7.530;2024-03-22T11:44:22;15.75;;;8.90;;
13202;SDS011;6666;51.626;7.530;2024-03-22T11:46:51;12.70;;;8.30;;
13202;SDS011;6666;51.626;7.530;2024-03-22T11:49:19;12.80;;;8.70;;
13202;SDS011;6666;51.626;7.530;2024-03-22T11:51:46;13.10;;;9.40;;
13202;SDS011;6666;51.626;7.530;2024-03-22T11:54:12;13.25;;;9.18;;
13202;SDS011;6666;51.626;7.530;2024-03-22T11:56:41;14.90;;;9.57;;
13202;SDS011;6666;51.626;7.530;2024-03-22T11:59:07;13.83;;;9.23;;
13202;SDS011;6666;51.626;7.530;2024-03-22T12:01:35;21.00;;;10.60;;
13202;SDS011;6666;51.626;7.530;2024-03-22T12:04:01;14.48;;;10.48;;
13202;SDS011;6666;51.626;7.530;2024-03-22T12:06:30;12.83;;;10.20;;
13202;SDS011;6666;51.626;7.530;2024-03-22T12:08:56;15.93;;;10.68;;
13202;SDS011;6666;51.626;7.530;2024-03-22T12:11:23;17.85;;;10.70;;
13202;SDS011;6666;51.626;7.530;2024-03-22T12:13:51;16.13;;;11.40;;
13202;SDS011;6666;51.626;7.530;2024-03-22T12:16:19;14.60;;;10.90;;
13202;SDS011;6666;51.626;7.530;2024-03-22T12:18:45;15.70;;;10.40;;
13202;SDS011;6666;51.626;7.530;2024-03-22T12:21:12;17.63;;;11.13;;
13202;SDS011;6666;51.626;7.530;2024-03-22T12:23:40;15.33;;;10.83;;
13202;SDS011;6666;51.626;7.530;2024-03-22T12:26:08;21.00;;;12.10;;
13202;SDS011;6666;51.626;7.530;2024-03-22T12:28:34;16.90;;;11.98;;
13202;SDS011;6666;51.626;7.530;2024-03-22T12:31:01;17.52;;;12.68;;
13202;SDS011;6666;51.626;7.530;2024-03-22T12:33:31;16.30;;;11.90;;
13202;SDS011;6666;51.626;7.530;2024-03-22T12:35:58;16.52;;;12.60;;
13202;SDS011;6666;51.626;7.530;2024-03-22T12:38:24;21.30;;;11.70;;
13202;SDS011;6666;51.626;7.530;2024-03-22T12:40:53;17.27;;;12.40;;
13202;SDS011;6666;51.626;7.530;2024-03-22T12:43:19;20.83;;;13.20;;
13202;SDS011;6666;51.626;7.530;2024-03-22T12:45:46;17.70;;;12.05;;
13202;SDS011;6666;51.626;7.530;2024-03-22T12:48:13;21.70;;;13.57;;
13202;SDS011;6666;51.626;7.530;2024-03-22T12:50:40;19.50;;;13.27;;
13202;SDS011;6666;51.626;7.530;2024-03-22T12:53:06;23.05;;;13.43;;
13202;SDS011;6666;51.626;7.530;2024-03-22T12:55:33;17.77;;;13.23;;
13202;SDS011;6666;51.626;7.530;2024-03-22T12:58:01;23.42;;;13.95;;
13202;SDS011;6666;51.626;7.530;2024-03-22T13:00:28;18.45;;;13.20;;
13202;SDS011;6666;51.626;7.530;2024-03-22T13:02:55;16.98;;;13.23;;
13202;SDS011;6666;51.626;7.530;2024-03-22T13:05:22;18.33;;;13.13;;
13202;SDS011;6666;51.626;7.530;2024-03-22T13:07:48;22.13;;;14.05;;
13202;SDS011;6666;51.626;7.530;2024-03-22T13:10:15;20.50;;;13.27;;
13202;SDS011;6666;51.626;7.530;2024-03-22T13:12:42;19.60;;;13.30;;
13202;SDS011;6666;51.626;7.530;2024-03-22T13:15:10;20.40;;;13.90;;
13202;SDS011;6666;51.626;7.530;2024-03-22T13:17:37;17.45;;;12.60;;
13202;SDS011;6666;51.626;7.530;2024-03-22T13:20:05;19.02;;;13.20;;
13202;SDS011;6666;51.626;7.530;2024-03-22T13:22:36;20.25;;;12.77;;
13202;SDS011;6666;51.626;7.530;2024-03-22T13:25:03;19.23;;;13.00;;
13202;SDS011;6666;51.626;7.530;2024-03-22T13:27:32;18.63;;;13.80;;
13202;SDS011;6666;51.626;7.530;2024-03-22T13:29:59;16.55;;;12.52;;
13202;SDS011;6666;51.626;7.530;2024-03-22T13:32:28;20.70;;;14.18;;
13202;SDS011;6666;51.626;7.530;2024-03-22T13:34:54;20.67;;;13.98;;
13202;SDS011;6666;51.626;7.530;2024-03-22T13:37:21;18.75;;;14.05;;
13202;SDS011;6666;51.626;7.530;2024-03-22T13:39:48;17.13;;;12.93;;
13202;SDS011;6666;51.626;7.530;2024-03-22T13:42:15;22.33;;;13.57;;
13202;SDS011;6666;51.626;7.530;2024-03-22T13:44:42;18.23;;;12.85;;
13202;SDS011;6666;51.626;7.530;2024-03-22T13:47:11;18.42;;;13.40;;
13202;SDS011;6666;51.626;7.530;2024-03-22T13:49:38;20.50;;;14.13;;
13202;SDS011;6666;51.626;7.530;2024-03-22T13:52:06;22.63;;;14.25;;
13202;SDS011;6666;51.626;7.530;2024-03-22T13:54:33;20.30;;;14.73;;
13202;SDS011;6666;51.626;7.530;2024-03-22T13:57:00;21.17;;;14.50;;
13202;SDS011;6666;51.626;7.530;2024-03-22T13:59:26;18.77;;;13.82;;
13202;SDS011;6666;51.626;7.530;2024-03-22T14:01:54;19.27;;;13.60;;
13202;SDS011;6666;51.626;7.530;2024-03-22T14:04:21;22.00;;;14.00;;
13202;SDS011;6666;51.626;7.530;2024-03-22T14:06:50;19.00;;;12.93;;
13202;SDS011;6666;51.626;7.530;2024-03-22T14:09:17;19.52;;;13.10;;
13202;SDS011;6666;51.626;7.530;2024-03-22T14:11:44;17.70;;;13.55;;
13202;SDS011;6666;51.626;7.530;2024-03-22T14:14:13;19.92;;;13.63;;
13202;SDS011;6666;51.626;7.530;2024-03-22T14:16:40;20.83;;;13.88;;
13202;SDS011;6666;51.626;7.530;2024-03-22T14:19:07;21.58;;;16.58;;
13202;SDS011;6666;51.626;7.530;2024-03-22T14:21:35;23.45;;;16.95;;
13202;SDS011;6666;51.626;7.530;2024-03-22T14:24:05;24.90;;;16.65;;
13202;SDS011;6666;51.626;7.530;2024-03-22T14:26:33;29.15;;;19.08;;
13202;SDS011;6666;51.626;7.530;2024-03-22T14:28:59;32.47;;;21.42;;
13202;SDS011;6666;51.626;7.530;2024-03-22T14:31:27;37.15;;;24.20;;
13202;SDS011;6666;51.626;7.530;2024-03-22T14:33:53;36.43;;;24.30;;
13202;SDS011;6666;51.626;7.530;2024-03-22T14:36:20;39.92;;;27.80;;
13202;SDS011;6666;51.626;7.530;2024-03-22T14:38:47;43.08;;;28.40;;